Time;durP1;ratioP1;P1;durP2;ratioP2;P2;SDS_P1;SDS_P2;PMS_P1;PMS_P2;Temp;Humidity;BMP_temperature;BMP_pressure;BME280_temperature;BME280_humidity;BME280_pressure;Samples;Min_cycle;Max_cycle;Signal;HPM_P1;HPM_P2
2023/08/30 00:00:22;;;;;;;30.92;25.67;;;11.50;99.90;;;;;;5054528;28;20483;-26
2023/08/30 00:02:48;;;;;;;35.22;24.23;;;11.50;99.90;;;;;;5053303;28;20037;-27
2023/08/30 00:05:14;;;;;;;30.65;24.05;;;11.50;99.90;;;;;;5053953;28;20047;-26
2023/08/30 00:07:40;;;;;;;31.17;25.35;;;11.50;99.90;;;;;;5052923;28;20052;-26
2023/08/30 00:10:10;;;;;;;31.73;25.00;;;11.50;99.90;;;;;;5054389;28;20135;-26
2023/08/30 00:12:36;;;;;;;33.63;25.10;;;11.40;99.90;;;;;;5054073;28;20049;-26
2023/08/30 00:15:02;;;;;;;32.88;25.20;;;11.40;99.90;;;;;;5053731;28;20049;-26
2023/08/30 00:17:28;;;;;;;35.53;27.13;;;11.50;99.90;;;;;;5053713;28;20051;-26
2023/08/30 00:19:55;;;;;;;37.63;28.25;;;11.50;99.90;;;;;;5053700;28;20067;-26
2023/08/30 00:22:22;;;;;;;35.42;28.08;;;11.60;99.90;;;;;;5052538;28;20037;-26
2023/08/30 00:24:48;;;;;;;37.00;27.30;;;11.60;99.90;;;;;;5054202;28;20045;-26
2023/08/30 00:27:13;;;;;;;43.42;30.42;;;11.50;99.90;;;;;;5052676;28;20451;-26
2023/08/30 00:29:39;;;;;;;42.13;30.27;;;11.50;99.90;;;;;;5053576;28;20052;-26
2023/08/30 00:32:05;;;;;;;45.55;31.48;;;11.60;99.90;;;;;;5053542;28;20093;-26
2023/08/30 00:34:31;;;;;;;41.30;30.38;;;11.60;99.90;;;;;;5053310;28;20045;-24
2023/08/30 00:36:56;;;;;;;44.95;31.27;;;11.50;99.90;;;;;;5053539;28;20136;-26
2023/08/30 00:39:22;;;;;;;37.55;28.73;;;11.60;99.90;;;;;;5053458;28;20052;-27
2023/08/30 00:41:48;;;;;;;39.45;29.80;;;11.50;99.90;;;;;;5053808;28;20045;-26
2023/08/30 00:44:14;;;;;;;42.33;30.52;;;11.50;99.90;;;;;;5052295;28;20052;-26
2023/08/30 00:46:40;;;;;;;42.22;30.70;;;11.40;99.90;;;;;;5053731;28;20386;-26
2023/08/30 00:49:06;;;;;;;47.38;34.25;;;11.50;99.90;;;;;;5052152;28;20083;-26
2023/08/30 00:51:32;;;;;;;47.97;33.17;;;11.60;99.90;;;;;;5052157;28;20506;-26
2023/08/30 00:53:59;;;;;;;38.53;28.55;;;11.60;99.90;;;;;;5056200;28;20041;-26
2023/08/30 00:56:27;;;;;;;41.28;31.30;;;11.60;99.90;;;;;;5056211;28;20056;-26
2023/08/30 00:58:53;;;;;;;39.70;29.88;;;11.80;99.90;;;;;;5056444;28;20045;-26
2023/08/30 01:01:20;;;;;;;36.47;27.35;;;11.90;99.90;;;;;;5057580;28;20045;-26
2023/08/30 01:03:45;;;;;;;35.97;28.50;;;12.10;99.90;;;;;;5057278;28;20045;-26
2023/08/30 01:06:13;;;;;;;36.15;28.38;;;12.20;99.90;;;;;;5056001;28;20049;-26
2023/08/30 01:08:41;;;;;;;40.60;30.17;;;12.10;99.90;;;;;;5057171;28;20491;-26
2023/08/30 01:11:13;;;;;;;36.13;28.13;;;12.10;99.90;;;;;;5056505;28;20103;-25
2023/08/30 01:13:47;;;;;;;37.40;26.97;;;12.30;99.90;;;;;;5057109;28;20049;-26
2023/08/30 01:16:14;;;;;;;35.35;25.55;;;12.30;99.90;;;;;;5057380;28;20278;-26
2023/08/30 01:18:41;;;;;;;34.13;25.73;;;12.30;99.90;;;;;;5057026;28;20048;-26
2023/08/30 01:21:17;;;;;;;32.38;26.23;;;12.40;99.90;;;;;;5057790;28;20127;-26
2023/08/30 01:24:04;;;;;;;37.05;28.17;;;12.40;99.90;;;;;;5057021;28;20391;-26
2023/08/30 01:26:48;;;;;;;30.13;23.15;;;12.40;99.90;;;;;;5057410;28;20045;-26
2023/08/30 01:29:16;;;;;;;32.92;24.13;;;12.40;99.90;;;;;;5056439;28;20092;-26
2023/08/30 01:31:44;;;;;;;30.13;24.90;;;12.30;99.90;;;;;;5056783;28;20041;-26
2023/08/30 01:34:10;;;;;;;30.13;23.17;;;12.20;99.90;;;;;;5056630;28;20041;-26
2023/08/30 01:36:36;;;;;;;30.13;23.25;;;12.20;99.90;;;;;;5057873;28;20051;-26
2023/08/30 01:39:04;;;;;;;27.42;22.70;;;12.10;99.90;;;;;;5056648;28;20049;-26
2023/08/30 01:41:30;;;;;;;28.92;22.30;;;12.20;99.90;;;;;;5056679;28;20056;-26
2023/08/30 01:43:59;;;;;;;28.63;22.13;;;12.10;99.90;;;;;;5056603;28;20049;-26
2023/08/30 01:46:25;;;;;;;23.15;19.98;;;12.10;99.90;;;;;;5055360;28;20075;-26
2023/08/30 01:48:52;;;;;;;24.90;19.90;;;12.10;99.90;;;;;;5056173;28;20562;-26
2023/08/30 01:51:18;;;;;;;26.08;19.20;;;12.10;99.90;;;;;;5055316;28;20060;-26
2023/08/30 01:53:45;;;;;;;24.80;20.02;;;12.10;99.90;;;;;;5056363;28;20045;-26
2023/08/30 01:56:11;;;;;;;22.13;19.58;;;12.10;99.90;;;;;;5056311;28;20075;-26
2023/08/30 01:58:37;;;;;;;24.70;19.15;;;12.20;99.90;;;;;;5056300;28;20053;-26
2023/08/30 02:01:03;;;;;;;26.15;18.45;;;12.10;99.90;;;;;;5055274;28;20102;-26
2023/08/30 02:03:28;;;;;;;24.48;19.15;;;12.20;99.90;;;;;;5056241;28;20049;-26
2023/08/30 02:06:13;;;;;;;20.75;17.60;;;12.10;99.90;;;;;;5056133;28;20052;-26
2023/08/30 02:08:45;;;;;;;24.88;18.23;;;12.10;99.90;;;;;;5056461;28;20380;-26
2023/08/30 02:11:19;;;;;;;21.25;18.35;;;12.20;99.90;;;;;;5054814;28;20044;-26
2023/08/30 02:13:45;;;;;;;20.17;16.80;;;12.20;99.90;;;;;;5054915;28;20056;-26
2023/08/30 02:16:13;;;;;;;22.50;17.58;;;12.10;99.90;;;;;;5055790;28;20053;-26
2023/08/30 02:18:41;;;;;;;20.10;15.93;;;12.20;99.90;;;;;;5054944;28;20398;-26
2023/08/30 02:21:06;;;;;;;18.25;14.95;;;12.20;99.90;;;;;;5055409;28;20053;-26
2023/08/30 02:23:32;;;;;;;21.73;16.75;;;12.20;99.90;;;;;;5055741;28;20368;-26
2023/08/30 02:25:58;;;;;;;19.95;15.88;;;12.30;99.90;;;;;;5056569;28;20087;-26
2023/08/30 02:28:24;;;;;;;18.83;14.85;;;12.30;99.90;;;;;;5055704;28;20060;-26
2023/08/30 02:30:53;;;;;;;18.38;15.30;;;12.20;99.90;;;;;;5055661;28;20052;-26
2023/08/30 02:33:19;;;;;;;19.63;17.27;;;12.20;99.90;;;;;;5055685;28;20052;-26
2023/08/30 02:35:45;;;;;;;18.17;15.30;;;12.20;99.90;;;;;;5054218;28;20096;-26
2023/08/30 02:38:10;;;;;;;18.77;16.05;;;12.20;99.90;;;;;;5055499;28;20041;-26
2023/08/30 02:40:36;;;;;;;20.90;16.25;;;12.20;99.90;;;;;;5055502;28;20048;-27
2023/08/30 02:43:02;;;;;;;19.60;16.33;;;12.10;99.90;;;;;;5054120;28;20075;-26
2023/08/30 02:45:28;;;;;;;18.95;15.82;;;12.10;99.90;;;;;;5055965;28;20099;-26
2023/08/30 02:47:56;;;;;;;21.08;15.93;;;12.00;99.90;;;;;;5055393;28;20458;-26
2023/08/30 02:50:23;;;;;;;19.02;16.20;;;11.90;99.90;;;;;;5055841;28;20091;-26
2023/08/30 02:52:48;;;;;;;19.90;17.05;;;11.70;99.90;;;;;;5055516;28;20095;-26
2023/08/30 02:55:14;;;;;;;20.73;16.08;;;11.60;99.90;;;;;;5055217;28;20053;-26
2023/08/30 02:57:40;;;;;;;17.27;14.60;;;11.40;99.90;;;;;;5055713;28;20049;-26
2023/08/30 03:00:06;;;;;;;20.80;16.58;;;11.30;99.90;;;;;;5055370;28;20148;-26
2023/08/30 03:02:33;;;;;;;23.52;17.20;;;11.10;99.90;;;;;;5055596;28;20123;-26
2023/08/30 03:04:59;;;;;;;19.75;15.98;;;11.00;99.90;;;;;;5054338;28;20048;-26
2023/08/30 03:07:28;;;;;;;19.40;15.60;;;10.90;99.90;;;;;;5055794;28;20433;-27
2023/08/30 03:09:54;;;;;;;19.35;15.85;;;10.80;99.90;;;;;;5054948;28;20052;-26
2023/08/30 03:12:20;;;;;;;19.55;15.73;;;10.70;99.90;;;;;;5053895;28;20495;-26
2023/08/30 03:14:46;;;;;;;22.05;16.58;;;10.60;99.90;;;;;;5053752;28;20111;-26
2023/08/30 03:17:12;;;;;;;22.13;17.88;;;10.60;99.90;;;;;;5054819;28;20049;-26
2023/08/30 03:19:37;;;;;;;24.20;18.52;;;10.50;99.90;;;;;;5053483;28;20552;-26
2023/08/30 03:22:03;;;;;;;23.05;17.75;;;10.40;99.90;;;;;;5054180;28;20041;-26
2023/08/30 03:24:29;;;;;;;26.13;19.35;;;10.40;99.90;;;;;;5054699;28;20127;-26
2023/08/30 03:26:55;;;;;;;26.20;18.65;;;10.40;99.90;;;;;;5053638;28;20051;-26
2023/08/30 03:29:20;;;;;;;24.42;18.50;;;10.30;99.90;;;;;;5054603;28;20041;-26
2023/08/30 03:31:46;;;;;;;23.15;18.75;;;10.20;99.90;;;;;;5054295;28;20505;-26
2023/08/30 03:34:12;;;;;;;22.92;17.10;;;10.20;99.90;;;;;;5054506;28;20049;-26
2023/08/30 03:36:39;;;;;;;28.98;18.67;;;10.10;99.90;;;;;;5052850;28;20434;-26
2023/08/30 03:39:05;;;;;;;24.10;17.55;;;10.10;99.90;;;;;;5054933;28;20056;-26
2023/08/30 03:41:30;;;;;;;26.67;18.17;;;10.00;99.90;;;;;;5054189;28;20048;-26
2023/08/30 03:43:56;;;;;;;28.30;20.23;;;9.90;99.90;;;;;;5054301;28;20094;-26
2023/08/30 03:46:22;;;;;;;25.65;18.80;;;9.90;99.90;;;;;;5054263;28;20076;-26
2023/08/30 03:48:47;;;;;;;25.80;19.63;;;9.90;99.90;;;;;;5054205;28;20479;-26
2023/08/30 03:51:13;;;;;;;30.10;20.45;;;9.80;99.90;;;;;;5053191;28;20081;-26
2023/08/30 03:53:39;;;;;;;27.58;19.33;;;9.90;99.90;;;;;;5054131;28;20067;-26
2023/08/30 03:56:04;;;;;;;27.35;19.85;;;9.80;99.90;;;;;;5054101;28;20045;-25
2023/08/30 03:58:30;;;;;;;28.63;20.95;;;9.90;99.90;;;;;;5054072;28;20044;-25
2023/08/30 04:00:57;;;;;;;30.33;21.52;;;10.10;99.90;;;;;;5054298;28;20053;-26
2023/08/30 04:03:23;;;;;;;30.65;21.27;;;10.10;99.90;;;;;;5052409;28;20048;-26
2023/08/30 04:05:55;;;;;;;30.35;21.17;;;10.30;99.90;;;;;;5053915;28;20048;-26
2023/08/30 04:08:21;;;;;;;31.77;21.05;;;10.30;99.90;;;;;;5053979;28;20056;-26
2023/08/30 04:10:49;;;;;;;26.08;19.67;;;10.40;99.90;;;;;;5054121;28;20053;-27
2023/08/30 04:13:15;;;;;;;31.33;21.13;;;10.40;99.90;;;;;;5052635;28;20044;-26
2023/08/30 04:15:40;;;;;;;29.55;21.33;;;10.50;99.90;;;;;;5053633;28;20114;-26
2023/08/30 04:18:06;;;;;;;32.50;22.67;;;10.50;99.90;;;;;;5053797;28;20486;-26
2023/08/30 04:20:33;;;;;;;27.35;19.60;;;10.60;99.90;;;;;;5052811;28;20041;-26
2023/08/30 04:23:01;;;;;;;27.08;18.85;;;10.60;99.90;;;;;;5054445;28;20048;-26
2023/08/30 04:25:28;;;;;;;26.85;18.00;;;10.60;99.90;;;;;;5035435;28;20048;-26
2023/08/30 04:27:53;;;;;;;27.98;19.80;;;10.60;99.90;;;;;;5053491;28;20037;-25
2023/08/30 04:30:19;;;;;;;28.92;18.77;;;10.60;99.90;;;;;;5053893;28;20051;-26
2023/08/30 04:32:45;;;;;;;23.48;17.33;;;10.70;99.90;;;;;;5053574;28;20478;-26
2023/08/30 04:35:11;;;;;;;23.00;17.98;;;10.80;99.90;;;;;;5053624;28;20052;-26
2023/08/30 04:37:38;;;;;;;25.05;17.83;;;10.90;99.90;;;;;;5053830;28;20125;-26
2023/08/30 04:40:05;;;;;;;22.42;17.45;;;11.00;99.90;;;;;;5053207;28;20495;-26
2023/08/30 04:42:31;;;;;;;22.27;17.13;;;11.10;99.90;;;;;;5052174;28;20053;-26
2023/08/30 04:45:00;;;;;;;21.02;16.58;;;11.20;99.90;;;;;;5053495;28;20048;-26
2023/08/30 04:47:26;;;;;;;20.20;16.90;;;11.30;99.90;;;;;;5053420;28;20049;-26
2023/08/30 04:49:52;;;;;;;19.75;15.77;;;11.40;99.90;;;;;;5054210;28;20049;-26
2023/08/30 04:52:18;;;;;;;21.70;16.13;;;11.50;99.90;;;;;;5052198;28;20041;-26
2023/08/30 04:54:45;;;;;;;21.27;15.32;;;11.50;99.90;;;;;;5053382;28;20053;-26
2023/08/30 04:57:14;;;;;;;18.83;15.43;;;11.60;99.90;;;;;;5053399;28;20071;-27
2023/08/30 04:59:40;;;;;;;21.20;15.80;;;11.60;99.90;;;;;;5053939;28;20049;-26
2023/08/30 05:02:06;;;;;;;18.77;13.95;;;11.70;99.90;;;;;;5053200;28;20041;-26
2023/08/30 05:04:32;;;;;;;20.15;14.38;;;11.80;99.90;;;;;;5053269;28;20059;-27
2023/08/30 05:06:58;;;;;;;21.67;15.30;;;11.70;99.90;;;;;;5053274;28;20124;-27
2023/08/30 05:09:24;;;;;;;17.48;14.57;;;11.80;99.90;;;;;;5053267;28;20045;-26
2023/08/30 05:11:51;;;;;;;16.90;13.18;;;11.90;99.90;;;;;;5053181;28;20045;-26
2023/08/30 05:14:17;;;;;;;17.63;13.00;;;11.90;99.90;;;;;;5052978;28;20548;-26
2023/08/30 05:16:43;;;;;;;22.30;15.60;;;12.00;99.90;;;;;;5052887;28;20048;-26
2023/08/30 05:19:08;;;;;;;19.30;13.43;;;12.00;99.90;;;;;;5052475;28;20044;-26
2023/08/30 05:21:34;;;;;;;17.25;12.85;;;12.00;99.90;;;;;;5053650;28;20382;-27
2023/08/30 05:24:00;;;;;;;16.08;12.10;;;12.10;99.90;;;;;;5053910;28;20119;-26
2023/08/30 05:26:26;;;;;;;15.45;13.15;;;12.20;99.90;;;;;;5053092;28;20182;-26
2023/08/30 05:28:51;;;;;;;15.70;12.80;;;12.20;99.90;;;;;;5053886;28;20041;-27
2023/08/30 05:31:17;;;;;;;15.23;12.27;;;12.30;99.90;;;;;;5052153;28;20479;-27
2023/08/30 05:33:43;;;;;;;15.40;11.57;;;12.30;99.90;;;;;;5051844;28;20480;-26
2023/08/30 05:36:09;;;;;;;16.63;11.77;;;12.40;99.90;;;;;;5053327;28;20057;-26
2023/08/30 05:38:34;;;;;;;14.85;11.45;;;12.50;99.90;;;;;;5054692;28;20528;-26
2023/08/30 05:41:00;;;;;;;13.48;11.30;;;12.60;99.90;;;;;;5057083;28;20045;-25
2023/08/30 05:43:26;;;;;;;14.77;11.52;;;12.60;99.90;;;;;;5057324;28;20041;-27
2023/08/30 05:45:51;;;;;;;14.10;10.95;;;12.70;99.90;;;;;;5055388;28;20483;-26
2023/08/30 05:48:17;;;;;;;18.38;10.90;;;12.80;99.90;;;;;;5056479;28;20063;-26
2023/08/30 05:50:45;;;;;;;12.45;10.32;;;12.90;99.90;;;;;;5056548;28;20100;-27
2023/08/30 05:53:10;;;;;;;14.80;10.70;;;13.00;99.90;;;;;;5055411;28;20479;-26
2023/08/30 05:55:37;;;;;;;13.95;10.73;;;13.10;99.90;;;;;;5057162;28;20090;-26
2023/08/30 05:58:03;;;;;;;12.48;10.02;;;13.10;99.90;;;;;;5056925;28;20060;-26
2023/08/30 06:00:29;;;;;;;12.00;9.90;;;13.20;99.90;;;;;;5055135;28;20048;-26
2023/08/30 06:02:55;;;;;;;12.00;9.93;;;13.20;99.90;;;;;;5056428;28;20045;-26
2023/08/30 06:05:20;;;;;;;11.95;9.30;;;13.30;99.90;;;;;;5056169;28;20079;-26
2023/08/30 06:07:46;;;;;;;12.25;9.48;;;13.40;99.90;;;;;;5056183;28;20476;-26
2023/08/30 06:10:12;;;;;;;13.07;11.00;;;13.40;99.90;;;;;;5056667;28;20102;-27
2023/08/30 06:12:38;;;;;;;15.68;9.35;;;13.40;99.90;;;;;;5056137;28;20403;-26
2023/08/30 06:15:04;;;;;;;20.40;9.23;;;13.40;99.90;;;;;;5056580;28;20041;-26
2023/08/30 06:17:30;;;;;;;21.17;9.95;;;13.40;99.90;;;;;;5055964;28;20053;-26
2023/08/30 06:19:56;;;;;;;15.75;9.75;;;13.50;99.90;;;;;;5054736;28;20105;-26
2023/08/30 06:22:21;;;;;;;15.82;9.95;;;13.50;99.90;;;;;;5056117;28;20091;-27
2023/08/30 06:24:47;;;;;;;12.07;9.73;;;13.50;99.90;;;;;;5055865;28;20399;-27
2023/08/30 06:27:13;;;;;;;13.27;9.05;;;13.60;99.90;;;;;;5055765;28;20487;-26
2023/08/30 06:29:38;;;;;;;11.70;9.00;;;13.60;99.90;;;;;;5055695;28;20056;-26
2023/08/30 06:32:05;;;;;;;14.65;9.15;;;13.60;99.90;;;;;;5055715;28;20124;-27
2023/08/30 06:34:30;;;;;;;10.70;8.90;;;13.60;99.90;;;;;;5056169;28;20045;-26
2023/08/30 06:36:56;;;;;;;12.60;9.52;;;13.60;99.90;;;;;;5055388;28;20402;-26
2023/08/30 06:39:22;;;;;;;13.73;9.02;;;13.60;99.90;;;;;;5038767;28;20045;-27
2023/08/30 06:41:48;;;;;;;11.80;9.07;;;13.50;99.90;;;;;;5054905;28;20049;-26
2023/08/30 06:44:14;;;;;;;13.25;9.65;;;13.50;99.90;;;;;;5055469;28;20091;-27
2023/08/30 06:46:39;;;;;;;12.70;10.07;;;13.40;99.90;;;;;;5055436;28;20088;-26
2023/08/30 06:49:05;;;;;;;13.07;10.52;;;13.40;99.90;;;;;;5054640;28;20045;-26
2023/08/30 06:51:31;;;;;;;15.30;8.80;;;13.40;99.90;;;;;;5054952;28;20045;-26
2023/08/30 06:54:00;;;;;;;14.18;10.43;;;13.40;99.90;;;;;;5055788;28;20502;-27
2023/08/30 06:56:26;;;;;;;15.82;9.25;;;13.40;99.90;;;;;;5054799;28;20098;-26
2023/08/30 06:58:52;;;;;;;15.35;10.10;;;13.50;99.90;;;;;;5055168;28;20407;-26
2023/08/30 07:01:18;;;;;;;15.15;10.48;;;13.50;99.90;;;;;;5055103;28;20093;-26
2023/08/30 07:03:44;;;;;;;13.07;9.15;;;13.60;99.90;;;;;;5055020;28;20045;-26
2023/08/30 07:06:10;;;;;;;12.68;9.55;;;13.60;99.90;;;;;;5055047;28;20131;-26
2023/08/30 07:08:35;;;;;;;11.77;9.02;;;13.60;99.90;;;;;;5055228;28;20380;-26
2023/08/30 07:11:01;;;;;;;13.07;8.82;;;13.60;99.90;;;;;;5054961;28;20047;-26
2023/08/30 07:13:27;;;;;;;13.75;9.32;;;13.60;99.90;;;;;;5055736;28;20049;-26
2023/08/30 07:15:53;;;;;;;13.07;8.75;;;13.80;99.90;;;;;;5037557;28;20048;-27
2023/08/30 07:18:19;;;;;;;16.02;9.07;;;13.90;99.90;;;;;;5037907;28;20059;-27
2023/08/30 07:20:45;;;;;;;11.43;8.30;;;14.00;99.90;;;;;;5055029;28;20053;-26
2023/08/30 07:23:10;;;;;;;12.20;9.82;;;14.10;99.90;;;;;;5054653;28;20499;-26
2023/08/30 07:25:37;;;;;;;12.65;8.82;;;14.20;99.90;;;;;;5053540;28;20049;-26
2023/08/30 07:28:04;;;;;;;13.13;8.90;;;14.30;99.90;;;;;;5054897;28;20151;-26
2023/08/30 07:30:29;;;;;;;11.32;8.57;;;14.40;99.90;;;;;;5054839;28;20399;-27
2023/08/30 07:32:55;;;;;;;14.23;9.30;;;14.60;99.90;;;;;;5055096;28;20041;-26
2023/08/30 07:35:21;;;;;;;11.45;7.38;;;14.90;99.90;;;;;;5053114;28;20451;-27
2023/08/30 07:37:47;;;;;;;10.68;7.60;;;15.20;99.90;;;;;;5054425;28;20060;-26
2023/08/30 07:40:13;;;;;;;13.40;9.18;;;15.40;99.90;;;;;;5053194;28;20048;-26
2023/08/30 07:42:38;;;;;;;11.93;7.45;;;15.70;99.90;;;;;;5054196;28;20041;-26
2023/08/30 07:45:05;;;;;;;11.10;8.25;;;16.00;99.90;;;;;;5053136;28;20054;-26
2023/08/30 07:47:30;;;;;;;12.48;7.70;;;16.10;14.20;;;;;;5054829;28;20437;-27
2023/08/30 07:49:56;;;;;;;12.73;7.93;;;16.10;1.00;;;;;;5054205;28;20045;-28
2023/08/30 07:52:22;;;;;;;10.75;6.78;;;16.00;1.00;;;;;;5055355;28;20040;-26
2023/08/30 07:54:48;;;;;;;10.13;7.13;;;16.10;1.00;;;;;;5054073;28;20045;-27
2023/08/30 07:57:13;;;;;;;9.23;6.63;;;16.10;1.00;;;;;;5053214;28;20055;-27
2023/08/30 07:59:39;;;;;;;12.85;7.93;;;16.20;1.00;;;;;;5053073;28;20492;-26
2023/08/30 08:02:07;;;;;;;11.15;6.60;;;16.40;1.00;;;;;;5035673;28;20056;-27
2023/08/30 08:04:33;;;;;;;9.82;6.88;;;16.50;99.90;;;;;;5054508;28;20052;-27
2023/08/30 08:06:59;;;;;;;9.93;6.88;;;16.50;1.00;;;;;;5053918;28;20060;-26
2023/08/30 08:09:25;;;;;;;10.88;6.47;;;16.30;99.90;;;;;;5054471;28;20049;-26
2023/08/30 08:11:51;;;;;;;8.60;6.75;;;16.30;99.90;;;;;;5054114;28;20037;-27
2023/08/30 08:14:17;;;;;;;10.45;7.13;;;16.30;99.90;;;;;;5054148;28;20505;-26
2023/08/30 08:16:43;;;;;;;10.88;6.90;;;16.40;99.90;;;;;;5053777;28;20593;-27
2023/08/30 08:19:09;;;;;;;10.48;6.95;;;16.40;99.90;;;;;;5053751;28;20080;-26
2023/08/30 08:21:35;;;;;;;9.57;6.25;;;16.40;99.90;;;;;;5052704;28;20053;-27
2023/08/30 08:24:01;;;;;;;9.55;6.80;;;16.30;99.90;;;;;;5053701;28;20140;-27
2023/08/30 08:26:27;;;;;;;9.07;6.80;;;16.30;99.90;;;;;;5053709;28;20045;-27
2023/08/30 08:28:56;;;;;;;10.65;6.50;;;16.20;99.90;;;;;;5053488;28;20102;-27
2023/08/30 08:31:22;;;;;;;15.27;8.07;;;16.20;99.90;;;;;;5053647;28;20056;-27
2023/08/30 08:34:05;;;;;;;9.25;6.82;;;16.20;99.90;;;;;;5053653;28;20044;-27
2023/08/30 08:36:31;;;;;;;9.13;6.95;;;16.20;99.90;;;;;;5053849;28;20064;-27
2023/08/30 08:38:57;;;;;;;9.80;7.45;;;16.30;99.90;;;;;;5053500;28;20411;-27
2023/08/30 08:41:31;;;;;;;10.27;7.00;;;16.40;99.90;;;;;;5052422;28;20052;-27
2023/08/30 08:43:59;;;;;;;12.68;7.47;;;16.60;99.90;;;;;;5036777;28;20049;-26
2023/08/30 08:46:27;;;;;;;10.73;7.50;;;16.90;99.90;;;;;;5053465;28;20044;-27
2023/08/30 08:48:55;;;;;;;10.95;7.53;;;16.80;99.90;;;;;;5053130;28;20507;-27
2023/08/30 08:51:23;;;;;;;11.48;7.47;;;16.90;99.90;;;;;;5053419;28;20049;-27
2023/08/30 08:53:50;;;;;;;9.45;6.78;;;16.90;99.90;;;;;;5052238;28;20045;-27
2023/08/30 08:56:16;;;;;;;12.35;7.80;;;17.00;99.90;;;;;;5053916;28;20076;-28
2023/08/30 08:58:43;;;;;;;11.18;6.32;;;16.90;99.90;;;;;;5053349;28;20045;-27
2023/08/30 09:01:09;;;;;;;8.48;6.45;;;16.60;1.00;;;;;;5053331;28;20053;-27
2023/08/30 09:03:36;;;;;;;8.70;5.13;;;16.60;1.00;;;;;;5053247;28;20053;-27
2023/08/30 09:06:03;;;;;;;10.25;6.65;;;16.50;1.00;;;;;;5052692;28;20045;-27
2023/08/30 09:08:29;;;;;;;7.97;6.03;;;16.30;1.00;;;;;;5019284;28;20127;-27
2023/08/30 09:10:54;;;;;;;9.50;6.43;;;16.30;1.00;;;;;;5053292;28;20095;-27
2023/08/30 09:13:22;;;;;;;9.57;7.57;;;16.20;1.00;;;;;;5036612;28;20513;-27
2023/08/30 09:15:49;;;;;;;9.88;7.57;;;16.10;1.00;;;;;;5039568;28;20064;-27
2023/08/30 09:18:18;;;;;;;10.20;7.18;;;16.10;32.90;;;;;;5057393;28;20376;-27
2023/08/30 09:20:44;;;;;;;9.95;7.35;;;16.10;1.00;;;;;;5057032;28;20052;-27
2023/08/30 09:23:18;;;;;;;10.82;7.28;;;16.10;75.00;;;;;;5056909;28;20049;-27
2023/08/30 09:25:44;;;;;;;11.15;7.38;;;16.10;99.90;;;;;;5055683;28;20075;-27
2023/08/30 09:28:10;;;;;;;9.50;7.25;;;16.10;99.90;;;;;;5056902;28;20482;-27
2023/08/30 09:30:36;;;;;;;10.20;7.70;;;16.30;99.90;;;;;;5056909;28;20045;-27
2023/08/30 09:33:05;;;;;;;9.32;6.97;;;16.30;99.90;;;;;;5056823;28;20041;-27
2023/08/30 09:35:31;;;;;;;11.15;7.82;;;16.40;99.90;;;;;;5056686;28;20156;-28
2023/08/30 09:37:57;;;;;;;11.00;7.65;;;16.60;99.90;;;;;;5056757;28;20052;-27
2023/08/30 09:40:23;;;;;;;10.20;7.40;;;16.70;99.90;;;;;;5055680;28;20037;-26
2023/08/30 09:42:49;;;;;;;10.82;6.53;;;16.70;99.90;;;;;;5038702;28;20040;-27
2023/08/30 09:45:24;;;;;;;9.45;7.22;;;16.70;99.90;;;;;;5056621;28;20049;-27
2023/08/30 09:47:50;;;;;;;8.10;6.38;;;16.70;1.00;;;;;;5056533;28;20053;-26
2023/08/30 09:50:20;;;;;;;9.45;7.20;;;16.70;79.40;;;;;;5056543;28;20080;-27
2023/08/30 09:52:50;;;;;;;7.95;6.78;;;16.80;74.30;;;;;;5056491;28;20051;-27
2023/08/30 09:55:18;;;;;;;9.68;7.57;;;16.80;82.10;;;;;;5056954;28;20465;-27
2023/08/30 09:57:44;;;;;;;10.18;7.40;;;16.60;99.90;;;;;;5056408;28;20110;-27
2023/08/30 10:00:14;;;;;;;9.98;6.95;;;16.60;99.90;;;;;;5056848;28;20045;-27
2023/08/30 10:02:43;;;;;;;10.73;7.55;;;16.60;99.90;;;;;;5055870;28;20480;-27
2023/08/30 10:05:13;;;;;;;9.82;7.00;;;16.40;76.70;;;;;;5055550;28;20103;-27
2023/08/30 10:07:39;;;;;;;11.43;7.40;;;16.20;99.90;;;;;;5056213;28;20102;-26
2023/08/30 10:10:05;;;;;;;10.80;6.75;;;16.10;99.90;;;;;;5056668;28;20376;-27
2023/08/30 10:12:34;;;;;;;9.98;7.40;;;16.00;99.90;;;;;;5054967;28;20053;-27
2023/08/30 10:15:00;;;;;;;9.50;6.97;;;15.90;99.90;;;;;;5056060;28;20072;-27
2023/08/30 10:17:33;;;;;;;10.90;7.38;;;16.00;99.90;;;;;;5056503;28;20045;-26
2023/08/30 10:20:04;;;;;;;11.02;7.28;;;16.10;1.00;;;;;;5056547;28;20433;-26
2023/08/30 10:22:32;;;;;;;10.45;7.25;;;16.20;1.00;;;;;;5055656;28;20056;-27
2023/08/30 10:25:04;;;;;;;11.20;7.07;;;16.30;1.00;;;;;;5037631;28;20083;-26
2023/08/30 10:27:33;;;;;;;11.32;6.53;;;16.60;1.00;;;;;;5055833;28;20123;-26
2023/08/30 10:30:01;;;;;;;7.93;5.72;;;16.70;99.90;;;;;;5055733;28;20538;-27
2023/08/30 10:32:26;;;;;;;7.30;4.88;;;16.80;99.90;;;;;;5055661;28;20495;-27
2023/08/30 10:34:52;;;;;;;7.85;5.55;;;16.80;99.90;;;;;;5055461;28;20091;-27
2023/08/30 10:37:26;;;;;;;9.65;6.50;;;17.00;99.90;;;;;;5056281;28;20061;-27
2023/08/30 10:39:52;;;;;;;9.90;7.38;;;17.10;34.60;;;;;;5055619;28;20037;-27
2023/08/30 10:42:22;;;;;;;6.75;5.57;;;17.30;99.90;;;;;;5055918;28;20045;-27
2023/08/30 10:45:04;;;;;;;7.43;4.70;;;17.40;99.90;;;;;;5055423;28;20044;-27
2023/08/30 10:47:32;;;;;;;6.47;5.07;;;17.50;1.00;;;;;;5056071;28;20460;-27
2023/08/30 10:49:59;;;;;;;5.32;4.50;;;17.50;1.00;;;;;;5055749;28;20429;-27
2023/08/30 10:52:26;;;;;;;7.22;5.00;;;17.40;1.00;;;;;;5054379;28;20146;-27
2023/08/30 10:54:52;;;;;;;9.13;5.07;;;17.40;1.00;;;;;;5055320;28;20049;-27
2023/08/30 10:57:20;;;;;;;6.68;4.95;;;17.30;1.00;;;;;;5055869;28;20048;-27
2023/08/30 11:00:24;;;;;;;7.50;4.82;;;17.20;1.00;;;;;;5054958;28;20521;-27
2023/08/30 11:02:51;;;;;;;10.90;6.72;;;17.50;46.40;;;;;;5033449;28;20099;-27
2023/08/30 11:05:23;;;;;;;8.15;5.60;;;17.70;99.90;;;;;;5016493;28;20050;-27
2023/08/30 11:07:50;;;;;;;8.98;6.10;;;17.70;51.20;;;;;;5044404;28;20053;-27
2023/08/30 11:10:16;;;;;;;7.28;6.22;;;17.80;45.20;;;;;;5053704;28;20553;-27
2023/08/30 11:12:44;;;;;;;9.45;6.25;;;17.90;99.90;;;;;;5055521;28;20364;-27
2023/08/30 11:15:11;;;;;;;8.60;5.25;;;17.80;99.90;;;;;;5055504;28;20132;-27
2023/08/30 11:17:36;;;;;;;7.00;5.43;;;17.70;99.90;;;;;;5055412;28;20086;-27
2023/08/30 11:20:19;;;;;;;9.07;5.65;;;17.60;99.90;;;;;;5054665;28;20045;-27
2023/08/30 11:22:46;;;;;;;;;;;17.50;99.90;;;;;;5056011;28;20517;-27
2023/08/30 11:25:13;;;;;;;6.53;5.32;;;17.50;99.90;;;;;;5053470;28;20015;-27
2023/08/30 11:27:40;;;;;;;7.63;5.00;;;17.50;99.90;;;;;;5054627;28;20060;-27
2023/08/30 11:30:08;;;;;;;8.13;5.55;;;17.30;99.90;;;;;;5054881;28;20110;-27
2023/08/30 11:32:38;;;;;;;6.88;5.60;;;17.30;99.90;;;;;;5055389;28;20045;-27
2023/08/30 11:35:05;;;;;;;10.13;6.18;;;17.30;99.90;;;;;;5054783;28;20067;-27
2023/08/30 11:37:31;;;;;;;7.88;5.43;;;17.10;99.90;;;;;;5054475;28;20398;-27
2023/08/30 11:39:59;;;;;;;5.90;4.80;;;16.90;99.90;;;;;;5054372;28;20132;-27
2023/08/30 11:42:26;;;;;;;5.53;4.72;;;16.80;99.90;;;;;;5054250;28;20127;-27
2023/08/30 11:44:51;;;;;;;7.60;4.47;;;16.70;1.00;;;;;;5054399;28;20124;-27
2023/08/30 11:47:24;;;;;;;5.50;4.15;;;16.60;1.00;;;;;;5036867;28;20107;-27
2023/08/30 11:49:57;;;;;;;6.68;4.28;;;16.60;99.90;;;;;;5054283;28;20446;-27
2023/08/30 11:52:24;;;;;;;6.22;4.30;;;16.60;1.00;;;;;;5036989;28;20060;-27
2023/08/30 11:54:50;;;;;;;7.72;4.75;;;16.70;1.00;;;;;;5054184;28;20087;-27
2023/08/30 11:57:16;;;;;;;5.88;4.50;;;16.90;1.00;;;;;;5054149;28;20129;-27
2023/08/30 11:59:42;;;;;;;7.35;3.67;;;16.90;1.00;;;;;;5054084;28;20566;-28
2023/08/30 12:02:09;;;;;;;5.85;4.38;;;17.00;1.00;;;;;;5054787;28;20048;-27
2023/08/30 12:04:45;;;;;;;10.27;4.55;;;16.90;1.00;;;;;;5053998;28;20052;-27
2023/08/30 12:07:23;;;;;;;6.93;4.43;;;17.00;1.00;;;;;;5054568;28;20476;-27
2023/08/30 12:09:49;;;;;;;5.28;4.30;;;17.10;1.00;;;;;;5053266;28;20060;-27
2023/08/30 12:12:15;;;;;;;5.30;4.38;;;17.10;1.00;;;;;;5053867;28;20119;-27
2023/08/30 12:14:41;;;;;;;5.35;4.03;;;17.10;1.00;;;;;;5054407;28;20145;-28
2023/08/30 12:17:11;;;;;;;11.43;4.07;;;17.10;1.00;;;;;;5054049;28;20045;-27
2023/08/30 12:19:36;;;;;;;4.63;3.88;;;17.00;1.00;;;;;;5054361;28;20111;-27
2023/08/30 12:22:06;;;;;;;6.28;4.18;;;16.90;1.00;;;;;;5054204;28;20048;-27
2023/08/30 12:24:45;;;;;;;5.78;4.25;;;16.80;1.00;;;;;;5054243;28;20052;-27
2023/08/30 12:27:10;;;;;;;6.13;5.00;;;16.50;1.00;;;;;;5053701;28;20045;-27
2023/08/30 12:29:36;;;;;;;6.22;4.78;;;16.30;1.00;;;;;;5053647;28;20052;-27
2023/08/30 12:32:02;;;;;;;7.28;5.22;;;16.00;4.10;;;;;;5053613;28;20068;-27
2023/08/30 12:34:28;;;;;;;9.65;5.38;;;16.00;32.90;;;;;;5052614;28;20099;-27